Khasan, Russia
Current Conditions -  °F | °C
As of 8:00 PM on Sunday 23 Nov 2014 (Local Time) from UHWW Reporting Station
Broken Clouds Broken Clouds  
Wind Chill: 32°   Ceiling: 3300
Heat Index: 32°   Visibility: 6mi
Dew Point: 21°   Wind: 2mph
Humidity: 64%   Direction: NA
Pressure: 30.21"   Gusts: NA
Location:  42.42°N, 130.65°E
Report Text: UHWW 231000Z VRB01MPS 9999 BKN033 BKN100 M00/M06 Q1023 NOSIGRMK QFE766/1022 25CLRD70
Loading
Personal Weather Stations






























Interactive Weather Map New forecast layout! Learn more

10-Day Weather Forecast

Advertisements
Track Severe Weather on mobile